Time,TemperatureF,DewpointF,PressureIn,WindDirection,WindDirectionDegrees,WindSpeedMPH,WindSpeedGustMPH,Humidity,HourlyPrecipIn,Conditions,Clouds,dailyrainin,SoftwareType,DateUTC
2013-08-04 00:01:00,83.8,75.4,30.10,SW,226,0.0,3.0,76,0.00,,,0.00,meteohub,2013-08-04 04:01:00,
2013-08-04 00:02:00,83.8,75.4,30.10,SW,226,1.0,3.0,76,0.00,,,0.00,meteohub,2013-08-04 04:02:00,
2013-08-04 00:04:00,83.8,75.4,30.10,SW,226,0.0,3.0,76,0.00,,,0.00,meteohub,2013-08-04 04:04:00,
2013-08-04 00:09:00,83.8,75.4,30.10,SW,226,0.0,3.0,76,0.00,,,0.00,meteohub,2013-08-04 04:09:00,
2013-08-04 00:14:00,83.7,75.2,30.10,SW,226,0.0,3.0,76,0.00,,,0.00,meteohub,2013-08-04 04:14:00,
2013-08-04 00:20:00,83.8,75.4,30.10,SW,226,1.0,4.0,76,0.00,,,0.00,meteohub,2013-08-04 04:20:00,
2013-08-04 00:25:00,83.8,75.4,30.10,SW,226,1.0,3.0,76,0.00,,,0.00,meteohub,2013-08-04 04:25:00,
2013-08-04 00:30:00,83.8,75.4,30.10,SW,226,0.0,4.0,76,0.00,,,0.00,meteohub,2013-08-04 04:30:00,
2013-08-04 00:35:00,83.8,75.4,30.10,SW,226,0.0,4.0,76,0.00,,,0.00,meteohub,2013-08-04 04:35:00,
2013-08-04 00:41:00,83.8,75.4,30.10,SW,226,1.0,4.0,76,0.00,,,0.00,meteohub,2013-08-04 04:41:00,
2013-08-04 00:46:00,83.8,75.4,30.10,SW,226,0.0,4.0,76,0.00,,,0.00,meteohub,2013-08-04 04:46:00,
2013-08-04 00:51:00,83.8,75.4,30.09,SW,226,0.0,4.0,76,0.00,,,0.00,meteohub,2013-08-04 04:51:00,
2013-08-04 00:56:00,83.8,75.4,30.09,SW,226,1.0,3.0,76,0.00,,,0.00,meteohub,2013-08-04 04:56:00,
2013-08-04 01:01:00,83.7,75.7,30.09,SW,226,0.0,3.0,77,0.00,,,0.00,meteohub,2013-08-04 05:01:00,
2013-08-04 01:06:00,83.7,75.7,30.09,SW,226,0.0,3.0,77,0.00,,,0.00,meteohub,2013-08-04 05:06:00,
2013-08-04 01:12:00,83.7,75.7,30.09,SW,226,0.0,3.0,77,0.00,,,0.00,meteohub,2013-08-04 05:12:00,
2013-08-04 01:17:00,83.7,75.7,30.09,SW,226,0.0,3.0,77,0.00,,,0.00,meteohub,2013-08-04 05:17:00,
2013-08-04 01:22:00,83.7,76.1,30.09,SW,226,0.0,3.0,78,0.00,,,0.00,meteohub,2013-08-04 05:22:00,
2013-08-04 01:26:00,83.7,76.1,30.09,SW,226,0.0,3.0,78,0.00,,,0.00,meteohub,2013-08-04 05:26:00,
2013-08-04 01:32:00,83.7,76.1,30.08,SW,226,1.0,3.0,78,0.00,,,0.00,meteohub,2013-08-04 05:32:00,
2013-08-04 01:37:00,83.7,76.1,30.08,SW,226,0.0,3.0,78,0.00,,,0.00,meteohub,2013-08-04 05:37:00,
2013-08-04 01:42:00,83.5,75.9,30.08,SW,226,1.0,3.0,78,0.00,,,0.00,meteohub,2013-08-04 05:42:00,
2013-08-04 01:47:00,83.1,75.6,30.08,SW,226,1.0,2.0,78,0.00,,,0.00,meteohub,2013-08-04 05:47:00,
2013-08-04 01:52:00,82.9,75.4,30.07,SW,226,0.0,1.0,78,0.00,,,0.00,meteohub,2013-08-04 05:52:00,
2013-08-04 01:58:00,82.9,75.7,30.08,SW,226,1.0,2.0,79,0.00,,,0.00,meteohub,2013-08-04 05:58:00,
2013-08-04 02:03:00,82.9,75.7,30.07,SW,226,1.0,2.0,79,0.00,,,0.00,meteohub,2013-08-04 06:03:00,
2013-08-04 02:08:00,82.9,75.7,30.07,SW,226,0.0,2.0,79,0.00,,,0.00,meteohub,2013-08-04 06:08:00,
2013-08-04 02:13:00,82.8,75.6,30.07,SW,226,0.0,2.0,79,0.00,,,0.00,meteohub,2013-08-04 06:13:00,
2013-08-04 02:18:00,82.8,75.9,30.07,SW,226,0.0,2.0,80,0.00,,,0.00,meteohub,2013-08-04 06:18:00,
2013-08-04 02:23:00,82.8,75.9,30.07,SW,226,0.0,2.0,80,0.00,,,0.00,meteohub,2013-08-04 06:23:00,
2013-08-04 02:29:00,82.8,75.9,30.06,SW,226,0.0,2.0,80,0.00,,,0.00,meteohub,2013-08-04 06:29:00,
2013-08-04 02:34:00,82.8,75.9,30.06,SW,226,0.0,2.0,80,0.00,,,0.00,meteohub,2013-08-04 06:34:00,
2013-08-04 02:39:00,82.8,75.9,30.06,SW,226,0.0,2.0,80,0.00,,,0.00,meteohub,2013-08-04 06:39:00,
2013-08-04 02:44:00,82.8,75.9,30.06,SW,226,0.0,1.0,80,0.00,,,0.00,meteohub,2013-08-04 06:44:00,
2013-08-04 02:49:00,82.8,75.9,30.06,SW,226,0.0,3.0,80,0.00,,,0.00,meteohub,2013-08-04 06:49:00,
2013-08-04 02:54:00,82.6,76.1,30.06,SW,226,0.0,3.0,81,0.00,,,0.00,meteohub,2013-08-04 06:54:00,
2013-08-04 03:00:00,82.6,76.1,30.06,SW,226,0.0,3.0,81,0.00,,,0.00,meteohub,2013-08-04 07:00:00,
2013-08-04 03:05:00,82.4,75.9,30.06,SW,226,0.0,1.0,81,0.00,,,0.00,meteohub,2013-08-04 07:05:00,
2013-08-04 03:10:00,82.4,75.9,30.05,SW,226,0.0,1.0,81,0.00,,,0.00,meteohub,2013-08-04 07:10:00,
2013-08-04 03:15:00,82.2,75.7,30.05,SW,226,0.0,1.0,81,0.00,,,0.00,meteohub,2013-08-04 07:15:00,
2013-08-04 03:20:00,82.0,75.6,30.05,SW,226,0.0,1.0,81,0.00,,,0.00,meteohub,2013-08-04 07:20:00,
2013-08-04 03:25:00,82.0,75.6,30.05,SW,226,0.0,1.0,81,0.00,,,0.00,meteohub,2013-08-04 07:25:00,
2013-08-04 03:30:00,82.0,75.6,30.05,SW,226,0.0,2.0,81,0.00,,,0.00,meteohub,2013-08-04 07:30:00,
2013-08-04 03:36:00,82.0,75.6,30.05,SW,226,0.0,2.0,81,0.00,,,0.00,meteohub,2013-08-04 07:36:00,
2013-08-04 03:41:00,82.0,75.6,30.05,SW,226,0.0,2.0,81,0.00,,,0.00,meteohub,2013-08-04 07:41:00,
2013-08-04 03:46:00,82.0,75.6,30.05,SW,226,0.0,2.0,81,0.00,,,0.00,meteohub,2013-08-04 07:46:00,
2013-08-04 03:51:00,82.0,75.6,30.05,SW,226,0.0,1.0,81,0.00,,,0.00,meteohub,2013-08-04 07:51:00,
2013-08-04 03:57:00,82.0,75.9,30.04,SW,226,0.0,1.0,82,0.00,,,0.00,meteohub,2013-08-04 07:57:00,
2013-08-04 04:02:00,82.0,75.9,30.04,SW,226,0.0,1.0,82,0.00,,,0.00,meteohub,2013-08-04 08:02:00,
2013-08-04 04:08:00,82.0,75.9,30.04,SW,226,0.0,0.0,82,0.00,,,0.00,meteohub,2013-08-04 08:08:00,
2013-08-04 04:13:00,82.0,75.9,30.04,SW,226,0.0,0.0,82,0.00,,,0.00,meteohub,2013-08-04 08:13:00,
2013-08-04 04:18:00,82.0,75.9,30.04,SW,226,0.0,1.0,82,0.00,,,0.00,meteohub,2013-08-04 08:18:00,
2013-08-04 04:23:00,82.2,76.1,30.04,SW,226,0.0,1.0,82,0.00,,,0.00,meteohub,2013-08-04 08:23:00,
2013-08-04 04:29:00,82.0,75.9,30.04,SW,226,0.0,1.0,82,0.00,,,0.00,meteohub,2013-08-04 08:29:00,
2013-08-04 04:34:00,82.0,75.9,30.04,SW,226,0.0,1.0,82,0.00,,,0.00,meteohub,2013-08-04 08:34:00,
2013-08-04 04:39:00,81.9,75.7,30.04,SW,226,0.0,0.0,82,0.00,,,0.00,meteohub,2013-08-04 08:39:00,
2013-08-04 04:44:00,81.9,76.1,30.04,SW,226,0.0,0.0,83,0.00,,,0.00,meteohub,2013-08-04 08:44:00,
2013-08-04 04:49:00,81.9,76.1,30.04,SW,226,0.0,0.0,83,0.00,,,0.00,meteohub,2013-08-04 08:49:00,
2013-08-04 04:55:00,81.9,76.1,30.04,SW,226,0.0,0.0,83,0.00,,,0.00,meteohub,2013-08-04 08:55:00,
2013-08-04 05:00:00,81.7,75.9,30.04,SW,226,0.0,0.0,83,0.00,,,0.00,meteohub,2013-08-04 09:00:00,
2013-08-04 05:05:00,81.7,75.9,30.04,SW,226,0.0,0.0,83,0.00,,,0.00,meteohub,2013-08-04 09:05:00,
2013-08-04 05:10:00,81.7,75.9,30.04,SW,226,0.0,0.0,83,0.00,,,0.00,meteohub,2013-08-04 09:10:00,
2013-08-04 05:15:00,81.7,75.9,30.04,SW,226,0.0,0.0,83,0.00,,,0.00,meteohub,2013-08-04 09:15:00,
2013-08-04 05:20:00,81.7,75.9,30.04,SW,226,0.0,0.0,83,0.00,,,0.00,meteohub,2013-08-04 09:20:00,
2013-08-04 05:25:00,81.9,75.7,30.04,SW,226,0.0,0.0,82,0.00,,,0.00,meteohub,2013-08-04 09:25:00,
2013-08-04 05:30:00,81.7,75.6,30.05,SW,226,0.0,0.0,82,0.00,,,0.00,meteohub,2013-08-04 09:30:00,
2013-08-04 05:35:00,81.9,76.1,30.05,SW,227,2.0,4.0,83,0.00,,,0.00,meteohub,2013-08-04 09:35:00,
2013-08-04 05:41:00,80.4,74.1,30.05,West,280,0.0,7.0,81,0.02,,,0.02,meteohub,2013-08-04 09:41:00,
2013-08-04 05:46:00,79.9,74.7,30.04,West,280,0.0,7.0,84,0.04,,,0.04,meteohub,2013-08-04 09:46:00,
2013-08-04 05:51:00,79.7,75.2,30.04,West,280,0.0,7.0,86,0.04,,,0.04,meteohub,2013-08-04 09:51:00,
2013-08-04 05:56:00,79.5,75.4,30.05,West,280,0.0,1.0,87,0.05,,,0.05,meteohub,2013-08-04 09:56:00,
2013-08-04 06:01:00,79.9,75.9,30.05,West,280,0.0,1.0,88,0.05,,,0.05,meteohub,2013-08-04 10:01:00,
2013-08-04 06:06:00,80.1,76.1,30.05,West,280,0.0,2.0,88,0.06,,,0.06,meteohub,2013-08-04 10:06:00,
2013-08-04 06:11:00,80.2,76.3,30.05,West,280,0.0,2.0,88,0.06,,,0.06,meteohub,2013-08-04 10:11:00,
2013-08-04 06:16:00,80.2,76.6,30.05,West,280,0.0,0.0,89,0.06,,,0.06,meteohub,2013-08-04 10:16:00,
2013-08-04 06:21:00,80.2,76.6,30.05,West,280,0.0,0.0,89,0.06,,,0.06,meteohub,2013-08-04 10:21:00,
2013-08-04 06:27:00,80.2,76.6,30.05,West,280,0.0,0.0,89,0.06,,,0.06,meteohub,2013-08-04 10:27:00,
2013-08-04 06:32:00,80.1,76.5,30.05,West,280,0.0,0.0,89,0.06,,,0.06,meteohub,2013-08-04 10:32:00,
2013-08-04 06:36:00,80.1,76.8,30.05,West,280,0.0,0.0,90,0.06,,,0.06,meteohub,2013-08-04 10:36:00,
2013-08-04 06:42:00,80.2,77.0,30.05,West,280,0.0,0.0,90,0.03,,,0.06,meteohub,2013-08-04 10:42:00,
2013-08-04 06:47:00,80.1,76.8,30.06,West,280,0.0,0.0,90,0.02,,,0.06,meteohub,2013-08-04 10:47:00,
2013-08-04 06:52:00,80.1,76.8,30.06,West,280,0.0,0.0,90,0.01,,,0.06,meteohub,2013-08-04 10:52:00,
2013-08-04 06:57:00,80.1,76.8,30.06,West,280,0.0,0.0,90,0.01,,,0.06,meteohub,2013-08-04 10:57:00,
2013-08-04 07:03:00,80.1,76.8,30.06,West,280,0.0,0.0,90,0.01,,,0.06,meteohub,2013-08-04 11:03:00,
2013-08-04 07:08:00,79.7,76.5,30.06,West,280,0.0,2.0,90,0.00,,,0.06,meteohub,2013-08-04 11:08:00,
2013-08-04 07:13:00,79.5,76.3,30.06,West,280,0.0,2.0,90,0.00,,,0.06,meteohub,2013-08-04 11:13:00,
2013-08-04 07:18:00,79.5,76.3,30.07,West,280,0.0,2.0,90,0.00,,,0.06,meteohub,2013-08-04 11:18:00,
2013-08-04 07:23:00,79.5,76.3,30.06,West,280,0.0,1.0,90,0.00,,,0.06,meteohub,2013-08-04 11:23:00,
2013-08-04 07:28:00,79.9,76.6,30.07,West,280,0.0,1.0,90,0.00,,,0.06,meteohub,2013-08-04 11:28:00,
2013-08-04 07:34:00,79.9,76.6,30.07,West,280,0.0,1.0,90,0.00,,,0.06,meteohub,2013-08-04 11:34:00,
2013-08-04 07:39:00,80.2,77.0,30.07,West,280,0.0,1.0,90,0.00,,,0.06,meteohub,2013-08-04 11:39:00,
2013-08-04 07:44:00,80.2,77.0,30.07,West,280,0.0,1.0,90,0.00,,,0.06,meteohub,2013-08-04 11:44:00,
2013-08-04 07:49:00,80.2,76.6,30.07,West,280,0.0,1.0,89,0.01,,,0.07,meteohub,2013-08-04 11:49:00,
2013-08-04 07:54:00,80.4,76.8,30.07,West,280,0.0,1.0,89,0.01,,,0.07,meteohub,2013-08-04 11:54:00,
2013-08-04 07:59:00,80.8,76.8,30.07,WSW,255,0.0,1.0,88,0.01,,,0.07,meteohub,2013-08-04 11:59:00,
2013-08-04 08:04:00,81.0,76.6,30.08,WSW,254,3.0,6.0,87,0.01,,,0.07,meteohub,2013-08-04 12:04:00,
2013-08-04 08:09:00,81.1,76.5,30.08,WSW,254,0.0,6.0,86,0.01,,,0.07,meteohub,2013-08-04 12:09:00,
2013-08-04 08:15:00,81.1,76.3,30.08,WSW,254,3.0,4.0,85,0.01,,,0.07,meteohub,2013-08-04 12:15:00,
2013-08-04 08:20:00,81.5,76.5,30.08,WSW,254,0.0,4.0,85,0.01,,,0.07,meteohub,2013-08-04 12:20:00,
2013-08-04 08:25:00,81.9,76.5,30.08,WSW,254,0.0,4.0,84,0.01,,,0.07,meteohub,2013-08-04 12:25:00,
2013-08-04 08:30:00,82.2,76.8,30.08,WSW,254,1.0,4.0,84,0.01,,,0.07,meteohub,2013-08-04 12:30:00,
2013-08-04 08:35:00,82.6,76.8,30.08,WSW,254,2.0,3.0,83,0.01,,,0.07,meteohub,2013-08-04 12:35:00,
2013-08-04 08:40:00,83.1,76.6,30.08,WSW,254,0.0,4.0,81,0.00,,,0.07,meteohub,2013-08-04 12:40:00,
2013-08-04 08:46:00,83.7,76.8,30.08,WSW,254,2.0,5.0,80,0.00,,,0.07,meteohub,2013-08-04 12:46:00,
2013-08-04 08:51:00,83.8,77.0,30.08,WSW,254,0.0,5.0,80,0.00,,,0.07,meteohub,2013-08-04 12:51:00,
2013-08-04 08:56:00,84.0,77.2,30.08,WSW,254,0.0,4.0,80,0.00,,,0.07,meteohub,2013-08-04 12:56:00,
2013-08-04 09:02:00,84.0,77.2,30.08,WSW,254,1.0,3.0,80,0.00,,,0.07,meteohub,2013-08-04 13:02:00,
2013-08-04 09:07:00,84.2,77.4,30.08,WSW,254,0.0,3.0,80,0.00,,,0.07,meteohub,2013-08-04 13:07:00,
2013-08-04 09:12:00,84.6,78.1,30.08,WSW,254,1.0,3.0,81,0.00,,,0.07,meteohub,2013-08-04 13:12:00,
2013-08-04 09:17:00,84.7,77.9,30.08,WSW,254,1.0,4.0,80,0.00,,,0.07,meteohub,2013-08-04 13:17:00,
2013-08-04 09:21:00,85.3,78.4,30.08,WSW,254,1.0,4.0,80,0.00,,,0.07,meteohub,2013-08-04 13:21:00,
2013-08-04 09:27:00,85.6,78.4,30.08,WSW,254,0.0,4.0,79,0.00,,,0.07,meteohub,2013-08-04 13:27:00,
2013-08-04 09:32:00,85.8,78.1,30.08,WNW,286,1.0,4.0,78,0.00,,,0.07,meteohub,2013-08-04 13:32:00,
2013-08-04 09:37:00,85.6,77.2,30.08,West,264,3.0,15.0,76,0.00,,,0.07,meteohub,2013-08-04 13:37:00,
2013-08-04 09:42:00,85.1,77.0,30.08,West,262,0.0,15.0,77,0.00,,,0.07,meteohub,2013-08-04 13:42:00,
2013-08-04 09:48:00,85.1,77.0,30.08,WSW,252,3.0,15.0,77,0.00,,,0.07,meteohub,2013-08-04 13:48:00,
2013-08-04 09:53:00,86.0,77.5,30.08,WSW,244,2.0,7.0,76,0.00,,,0.07,meteohub,2013-08-04 13:53:00,
2013-08-04 09:58:00,86.7,77.4,30.09,WNW,282,3.0,6.0,74,0.00,,,0.07,meteohub,2013-08-04 13:58:00,
2013-08-04 10:03:00,87.1,77.4,30.09,West,270,1.0,6.0,73,0.00,,,0.07,meteohub,2013-08-04 14:03:00,
2013-08-04 10:08:00,87.4,77.4,30.08,WNW,288,4.0,6.0,72,0.00,,,0.07,meteohub,2013-08-04 14:08:00,
2013-08-04 10:13:00,87.6,77.5,30.09,WSW,245,0.0,7.0,72,0.00,,,0.07,meteohub,2013-08-04 14:13:00,
2013-08-04 10:19:00,87.4,77.4,30.09,WSW,244,0.0,7.0,72,0.00,,,0.07,meteohub,2013-08-04 14:19:00,
2013-08-04 10:24:00,87.3,77.2,30.09,WSW,244,1.0,6.0,72,0.00,,,0.07,meteohub,2013-08-04 14:24:00,
2013-08-04 10:29:00,86.5,76.5,30.09,West,265,4.0,6.0,72,0.00,,,0.07,meteohub,2013-08-04 14:29:00,
2013-08-04 10:34:00,86.5,76.5,30.09,West,277,4.0,6.0,72,0.00,,,0.07,meteohub,2013-08-04 14:34:00,
2013-08-04 10:39:00,86.9,76.8,30.09,WNW,286,0.0,6.0,72,0.00,,,0.07,meteohub,2013-08-04 14:39:00,
2013-08-04 10:45:00,87.4,77.4,30.09,West,265,4.0,6.0,72,0.00,,,0.07,meteohub,2013-08-04 14:45:00,
2013-08-04 10:50:00,87.3,76.6,30.09,WSW,252,0.0,7.0,71,0.00,,,0.07,meteohub,2013-08-04 14:50:00,
2013-08-04 10:55:00,87.8,77.2,30.09,WNW,293,3.0,7.0,71,0.00,,,0.07,meteohub,2013-08-04 14:55:00,
2013-08-04 11:00:00,88.0,78.3,30.09,West,277,0.0,7.0,73,0.00,,,0.07,meteohub,2013-08-04 15:00:00,
2013-08-04 11:05:00,88.2,78.4,30.09,West,281,7.0,7.0,73,0.00,,,0.07,meteohub,2013-08-04 15:05:00,
2013-08-04 11:10:00,88.2,78.4,30.09,WNW,284,3.0,7.0,73,0.00,,,0.07,meteohub,2013-08-04 15:10:00,
2013-08-04 11:15:00,88.3,78.6,30.09,West,278,5.0,7.0,73,0.00,,,0.07,meteohub,2013-08-04 15:15:00,
2013-08-04 11:20:00,88.9,77.9,30.09,West,278,4.0,7.0,70,0.00,,,0.07,meteohub,2013-08-04 15:20:00,
2013-08-04 11:26:00,88.5,77.0,30.09,WNW,290,3.0,7.0,69,0.00,,,0.07,meteohub,2013-08-04 15:26:00,
2013-08-04 11:31:00,87.8,76.8,30.09,West,273,2.0,7.0,70,0.00,,,0.07,meteohub,2013-08-04 15:31:00,
2013-08-04 11:36:00,87.4,75.9,30.09,West,276,1.0,7.0,69,0.00,,,0.07,meteohub,2013-08-04 15:36:00,
2013-08-04 11:42:00,87.1,75.7,30.09,West,260,2.0,9.0,69,0.00,,,0.07,meteohub,2013-08-04 15:42:00,
2013-08-04 11:47:00,87.3,76.3,30.09,WSW,255,3.0,9.0,70,0.00,,,0.07,meteohub,2013-08-04 15:47:00,
2013-08-04 11:52:00,87.6,76.1,30.09,West,265,8.0,9.0,69,0.00,,,0.07,meteohub,2013-08-04 15:52:00,
2013-08-04 11:57:00,88.2,76.6,30.09,West,279,4.0,9.0,69,0.00,,,0.07,meteohub,2013-08-04 15:57:00,
2013-08-04 12:02:00,88.9,77.0,30.09,WSW,257,4.0,10.0,68,0.00,,,0.07,meteohub,2013-08-04 16:02:00,
2013-08-04 12:07:00,89.2,76.5,30.09,West,269,3.0,10.0,66,0.00,,,0.07,meteohub,2013-08-04 16:07:00,
2013-08-04 12:12:00,89.2,76.8,30.08,West,272,5.0,10.0,67,0.00,,,0.07,meteohub,2013-08-04 16:12:00,
2013-08-04 12:17:00,89.2,77.4,30.08,West,281,3.0,12.0,68,0.00,,,0.07,meteohub,2013-08-04 16:17:00,
2013-08-04 12:23:00,90.1,77.7,30.08,West,276,3.0,12.0,67,0.00,,,0.07,meteohub,2013-08-04 16:23:00,
2013-08-04 12:28:00,90.3,77.9,30.08,WSW,257,2.0,12.0,67,0.00,,,0.07,meteohub,2013-08-04 16:28:00,
2013-08-04 12:33:00,90.1,77.2,30.08,West,271,3.0,8.0,66,0.00,,,0.07,meteohub,2013-08-04 16:33:00,
2013-08-04 12:39:00,90.3,77.4,30.08,NW,320,6.0,8.0,66,0.00,,,0.07,meteohub,2013-08-04 16:39:00,
2013-08-04 12:44:00,90.3,77.9,30.07,NW,311,7.0,9.0,67,0.00,,,0.07,meteohub,2013-08-04 16:44:00,
2013-08-04 12:49:00,90.1,78.1,30.07,West,275,6.0,9.0,68,0.00,,,0.07,meteohub,2013-08-04 16:49:00,
2013-08-04 12:54:00,90.1,78.1,30.07,NW,304,4.0,10.0,68,0.00,,,0.07,meteohub,2013-08-04 16:54:00,
2013-08-04 13:00:00,90.3,78.3,30.07,WNW,288,5.0,9.0,68,0.00,,,0.07,meteohub,2013-08-04 17:00:00,
2013-08-04 13:05:00,90.5,78.4,30.06,WNW,286,3.0,10.0,68,0.00,,,0.07,meteohub,2013-08-04 17:05:00,
2013-08-04 13:10:00,89.8,76.8,30.06,WNW,299,5.0,10.0,66,0.00,,,0.07,meteohub,2013-08-04 17:10:00,
2013-08-04 13:15:00,90.1,77.2,30.06,West,270,3.0,10.0,66,0.00,,,0.07,meteohub,2013-08-04 17:15:00,
2013-08-04 13:21:00,90.3,77.9,30.06,West,279,3.0,10.0,67,0.00,,,0.07,meteohub,2013-08-04 17:21:00,
2013-08-04 13:26:00,90.1,77.2,30.06,West,275,5.0,11.0,66,0.00,,,0.07,meteohub,2013-08-04 17:26:00,
2013-08-04 13:31:00,89.8,77.7,30.06,WNW,283,5.0,11.0,68,0.00,,,0.07,meteohub,2013-08-04 17:31:00,
2013-08-04 13:36:00,89.8,78.3,30.06,West,276,2.0,11.0,69,0.00,,,0.07,meteohub,2013-08-04 17:36:00,
2013-08-04 13:42:00,90.1,77.2,30.06,SSW,202,4.0,11.0,66,0.00,,,0.07,meteohub,2013-08-04 17:42:00,
2013-08-04 13:47:00,90.0,78.4,30.06,WNW,293,8.0,11.0,69,0.00,,,0.07,meteohub,2013-08-04 17:47:00,
2013-08-04 13:52:00,89.4,77.5,30.06,WSW,240,4.0,11.0,68,0.00,,,0.07,meteohub,2013-08-04 17:52:00,
2013-08-04 13:57:00,89.8,77.7,30.06,WSW,256,5.0,10.0,68,0.00,,,0.07,meteohub,2013-08-04 17:57:00,
2013-08-04 14:02:00,90.3,77.4,30.05,WNW,290,6.0,11.0,66,0.00,,,0.07,meteohub,2013-08-04 18:02:00,
2013-08-04 14:07:00,90.5,77.2,30.05,NW,313,8.0,11.0,65,0.00,,,0.07,meteohub,2013-08-04 18:07:00,
2013-08-04 14:13:00,90.3,77.4,30.05,WSW,247,5.0,11.0,66,0.00,,,0.07,meteohub,2013-08-04 18:13:00,
2013-08-04 14:18:00,90.1,76.8,30.04,WNW,302,4.0,10.0,65,0.00,,,0.07,meteohub,2013-08-04 18:18:00,
2013-08-04 14:23:00,90.1,77.2,30.04,West,266,10.0,10.0,66,0.00,,,0.07,meteohub,2013-08-04 18:23:00,
2013-08-04 14:29:00,90.7,77.4,30.04,WNW,290,8.0,12.0,65,0.00,,,0.07,meteohub,2013-08-04 18:29:00,
2013-08-04 14:34:00,90.9,77.5,30.04,NNW,329,3.0,12.0,65,0.00,,,0.07,meteohub,2013-08-04 18:34:00,
2013-08-04 14:39:00,91.0,77.2,30.04,West,277,4.0,12.0,64,0.00,,,0.07,meteohub,2013-08-04 18:39:00,
2013-08-04 14:44:00,91.0,76.6,30.04,West,280,8.0,10.0,63,0.00,,,0.07,meteohub,2013-08-04 18:44:00,
2013-08-04 14:49:00,91.6,77.2,30.04,NW,324,3.0,10.0,63,0.00,,,0.07,meteohub,2013-08-04 18:49:00,
2013-08-04 14:54:00,91.8,77.4,30.03,NW,325,8.0,10.0,63,0.00,,,0.07,meteohub,2013-08-04 18:54:00,
2013-08-04 14:59:00,90.9,76.5,30.03,WNW,295,3.0,11.0,63,0.00,,,0.07,meteohub,2013-08-04 18:59:00,
2013-08-04 15:05:00,91.4,77.9,30.03,WNW,294,2.0,11.0,65,0.00,,,0.07,meteohub,2013-08-04 19:05:00,
2013-08-04 15:10:00,91.0,77.2,30.03,WNW,292,5.0,11.0,64,0.00,,,0.07,meteohub,2013-08-04 19:10:00,
2013-08-04 15:15:00,90.7,77.7,30.03,West,270,0.0,10.0,66,0.00,,,0.07,meteohub,2013-08-04 19:15:00,
2013-08-04 15:20:00,90.7,76.8,30.03,NW,307,6.0,10.0,64,0.00,,,0.07,meteohub,2013-08-04 19:20:00,
2013-08-04 15:26:00,90.9,77.9,30.02,WNW,292,1.0,9.0,66,0.00,,,0.07,meteohub,2013-08-04 19:26:00,
2013-08-04 15:31:00,90.7,77.7,30.02,West,265,4.0,10.0,66,0.00,,,0.07,meteohub,2013-08-04 19:31:00,
2013-08-04 15:36:00,90.1,77.2,30.02,West,272,3.0,10.0,66,0.00,,,0.07,meteohub,2013-08-04 19:36:00,
2013-08-04 15:42:00,90.0,77.5,30.01,WSW,242,3.0,9.0,67,0.00,,,0.07,meteohub,2013-08-04 19:42:00,
2013-08-04 15:46:00,90.3,77.4,30.01,SW,236,5.0,10.0,66,0.00,,,0.07,meteohub,2013-08-04 19:46:00,
2013-08-04 15:52:00,91.0,78.1,30.02,WNW,298,4.0,10.0,66,0.00,,,0.07,meteohub,2013-08-04 19:52:00,
2013-08-04 15:57:00,90.7,77.7,30.02,WNW,302,3.0,9.0,66,0.00,,,0.07,meteohub,2013-08-04 19:57:00,
2013-08-04 16:02:00,91.0,78.1,30.02,NW,306,2.0,9.0,66,0.00,,,0.07,meteohub,2013-08-04 20:02:00,
2013-08-04 16:07:00,90.9,77.9,30.02,West,261,4.0,9.0,66,0.00,,,0.07,meteohub,2013-08-04 20:07:00,
2013-08-04 16:12:00,90.9,77.5,30.02,WNW,294,4.0,10.0,65,0.00,,,0.07,meteohub,2013-08-04 20:12:00,
2013-08-04 16:18:00,91.0,77.2,30.02,WNW,288,2.0,10.0,64,0.00,,,0.07,meteohub,2013-08-04 20:18:00,
2013-08-04 16:22:00,91.0,77.5,30.02,NW,313,3.0,10.0,65,0.00,,,0.07,meteohub,2013-08-04 20:22:00,
2013-08-04 16:28:00,90.7,77.4,30.02,NW,308,5.0,10.0,65,0.00,,,0.07,meteohub,2013-08-04 20:28:00,
2013-08-04 16:33:00,90.7,77.4,30.02,NW,308,2.0,11.0,65,0.00,,,0.07,meteohub,2013-08-04 20:33:00,
2013-08-04 16:38:00,90.1,76.8,30.02,West,281,4.0,11.0,65,0.00,,,0.07,meteohub,2013-08-04 20:38:00,
2013-08-04 16:44:00,90.0,77.0,30.02,WNW,285,6.0,11.0,66,0.00,,,0.07,meteohub,2013-08-04 20:44:00,
2013-08-04 16:49:00,89.2,76.8,30.02,WNW,286,5.0,8.0,67,0.00,,,0.07,meteohub,2013-08-04 20:49:00,
2013-08-04 16:54:00,88.9,77.4,30.02,WNW,294,3.0,9.0,69,0.00,,,0.07,meteohub,2013-08-04 20:54:00,
2013-08-04 17:00:00,87.3,76.6,30.02,WNW,292,5.0,9.0,71,0.00,,,0.07,meteohub,2013-08-04 21:00:00,
2013-08-04 17:05:00,82.9,75.4,30.02,West,263,5.0,13.0,78,0.09,,,0.16,meteohub,2013-08-04 21:05:00,
2013-08-04 17:10:00,81.0,75.0,30.02,SW,233,7.0,13.0,82,0.13,,,0.20,meteohub,2013-08-04 21:10:00,
2013-08-04 17:15:00,80.4,74.8,30.02,SSW,209,7.0,13.0,83,0.13,,,0.20,meteohub,2013-08-04 21:15:00,
2013-08-04 17:20:00,81.1,75.2,30.03,SW,222,5.0,10.0,82,0.13,,,0.20,meteohub,2013-08-04 21:20:00,
2013-08-04 17:25:00,81.1,75.2,30.02,SSW,202,4.0,10.0,82,0.13,,,0.20,meteohub,2013-08-04 21:25:00,
2013-08-04 17:31:00,82.2,76.5,30.02,SSW,204,0.0,9.0,83,0.13,,,0.20,meteohub,2013-08-04 21:31:00,
2013-08-04 17:36:00,82.8,77.0,30.02,SSW,204,0.0,8.0,83,0.13,,,0.20,meteohub,2013-08-04 21:36:00,
2013-08-04 17:41:00,82.9,77.2,30.02,SSW,204,0.0,6.0,83,0.13,,,0.20,meteohub,2013-08-04 21:41:00,
2013-08-04 17:46:00,83.5,78.1,30.01,SSW,204,1.0,3.0,84,0.13,,,0.20,meteohub,2013-08-04 21:46:00,
2013-08-04 17:52:00,83.7,77.9,30.01,SSW,204,0.0,3.0,83,0.13,,,0.20,meteohub,2013-08-04 21:52:00,
2013-08-04 17:57:00,84.0,77.9,30.01,SSW,213,0.0,3.0,82,0.13,,,0.20,meteohub,2013-08-04 21:57:00,
2013-08-04 18:02:00,84.4,78.3,30.01,SSW,213,0.0,3.0,82,0.12,,,0.20,meteohub,2013-08-04 22:02:00,
2013-08-04 18:07:00,84.7,78.6,30.01,SW,221,1.0,3.0,82,0.03,,,0.20,meteohub,2013-08-04 22:07:00,
2013-08-04 18:12:00,84.9,78.4,30.01,SW,221,0.0,3.0,81,0.00,,,0.20,meteohub,2013-08-04 22:12:00,
2013-08-04 18:17:00,85.3,78.4,30.01,SW,221,0.0,3.0,80,0.00,,,0.20,meteohub,2013-08-04 22:17:00,
2013-08-04 18:22:00,85.3,78.1,30.01,SW,222,2.0,4.0,79,0.00,,,0.20,meteohub,2013-08-04 22:22:00,
2013-08-04 18:27:00,85.3,78.4,30.01,SW,225,0.0,4.0,80,0.00,,,0.20,meteohub,2013-08-04 22:27:00,
2013-08-04 18:32:00,85.3,78.4,30.01,SW,227,2.0,4.0,80,0.00,,,0.20,meteohub,2013-08-04 22:32:00,
2013-08-04 18:37:00,85.1,78.3,30.01,SW,227,1.0,4.0,80,0.00,,,0.20,meteohub,2013-08-04 22:37:00,
2013-08-04 18:42:00,85.5,78.6,30.01,SW,227,0.0,4.0,80,0.00,,,0.20,meteohub,2013-08-04 22:42:00,
2013-08-04 18:46:00,85.6,78.8,30.01,SW,227,2.0,3.0,80,0.00,,,0.20,meteohub,2013-08-04 22:46:00,
2013-08-04 18:52:00,85.8,78.1,30.01,SW,227,2.0,3.0,78,0.00,,,0.20,meteohub,2013-08-04 22:52:00,
2013-08-04 18:56:00,86.4,78.6,30.01,SW,227,0.0,4.0,78,0.00,,,0.20,meteohub,2013-08-04 22:56:00,
2013-08-04 19:02:00,86.5,78.8,30.01,SW,227,0.0,4.0,78,0.00,,,0.20,meteohub,2013-08-04 23:02:00,
2013-08-04 19:07:00,86.5,78.4,30.01,SW,227,1.0,4.0,77,0.00,,,0.20,meteohub,2013-08-04 23:07:00,
2013-08-04 19:12:00,86.4,77.5,30.01,SW,227,0.0,4.0,75,0.00,,,0.20,meteohub,2013-08-04 23:12:00,
2013-08-04 19:17:00,86.5,77.2,30.01,SW,227,0.0,4.0,74,0.00,,,0.20,meteohub,2013-08-04 23:17:00,
2013-08-04 19:22:00,86.4,77.0,30.01,SW,227,3.0,4.0,74,0.00,,,0.20,meteohub,2013-08-04 23:22:00,
2013-08-04 19:27:00,86.4,77.5,30.01,SW,229,0.0,5.0,75,0.00,,,0.20,meteohub,2013-08-04 23:27:00,
2013-08-04 19:32:00,86.2,77.4,30.01,SW,229,1.0,5.0,75,0.00,,,0.20,meteohub,2013-08-04 23:32:00,
2013-08-04 19:38:00,85.8,77.4,30.02,SW,229,2.0,4.0,76,0.00,,,0.20,meteohub,2013-08-04 23:38:00,
2013-08-04 19:43:00,85.5,77.0,30.02,SW,229,0.0,4.0,76,0.00,,,0.20,meteohub,2013-08-04 23:43:00,
2013-08-04 19:48:00,85.3,76.8,30.02,SW,232,2.0,4.0,76,0.00,,,0.20,meteohub,2013-08-04 23:48:00,
2013-08-04 19:53:00,85.1,77.0,30.02,SW,232,0.0,4.0,77,0.00,,,0.20,meteohub,2013-08-04 23:53:00,
2013-08-04 19:58:00,85.3,77.2,30.02,SW,232,0.0,4.0,77,0.00,,,0.20,meteohub,2013-08-04 23:58:00,
2013-08-04 20:03:00,85.3,77.2,30.02,SW,232,0.0,3.0,77,0.00,,,0.20,meteohub,2013-08-05 00:03:00,
2013-08-04 20:08:00,85.3,76.8,30.03,SW,232,0.0,2.0,76,0.00,,,0.20,meteohub,2013-08-05 00:08:00,
2013-08-04 20:13:00,85.3,77.2,30.02,SW,232,1.0,4.0,77,0.00,,,0.20,meteohub,2013-08-05 00:13:00,
2013-08-04 20:18:00,85.1,77.0,30.02,SW,232,2.0,4.0,77,0.00,,,0.20,meteohub,2013-08-05 00:18:00,
2013-08-04 20:23:00,84.7,76.6,30.02,SW,232,0.0,4.0,77,0.00,,,0.20,meteohub,2013-08-05 00:23:00,
2013-08-04 20:29:00,84.6,77.0,30.02,SW,232,0.0,2.0,78,0.00,,,0.20,meteohub,2013-08-05 00:29:00,
2013-08-04 20:34:00,84.6,77.0,30.03,SW,232,0.0,2.0,78,0.00,,,0.20,meteohub,2013-08-05 00:34:00,
2013-08-04 20:39:00,84.4,76.8,30.02,SW,232,0.0,1.0,78,0.00,,,0.20,meteohub,2013-08-05 00:39:00,
2013-08-04 20:44:00,84.4,76.8,30.02,SW,232,0.0,1.0,78,0.00,,,0.20,meteohub,2013-08-05 00:44:00,
2013-08-04 20:50:00,84.4,76.8,30.03,SW,232,0.0,1.0,78,0.00,,,0.20,meteohub,2013-08-05 00:50:00,
2013-08-04 20:55:00,84.0,76.5,30.02,SW,232,0.0,1.0,78,0.00,,,0.20,meteohub,2013-08-05 00:55:00,
2013-08-04 21:00:00,83.8,76.3,30.02,SW,232,1.0,2.0,78,0.00,,,0.20,meteohub,2013-08-05 01:00:00,
2013-08-04 21:05:00,83.7,76.5,30.03,SW,232,0.0,3.0,79,0.00,,,0.20,meteohub,2013-08-05 01:05:00,
2013-08-04 21:10:00,83.7,76.5,30.03,SW,232,0.0,3.0,79,0.00,,,0.20,meteohub,2013-08-05 01:10:00,
2013-08-04 21:15:00,83.7,76.1,30.03,SW,232,0.0,3.0,78,0.00,,,0.20,meteohub,2013-08-05 01:15:00,
2013-08-04 21:20:00,83.7,76.1,30.03,SW,232,0.0,2.0,78,0.00,,,0.20,meteohub,2013-08-05 01:20:00,
2013-08-04 21:26:00,83.5,75.9,30.03,SW,232,0.0,2.0,78,0.00,,,0.20,meteohub,2013-08-05 01:26:00,
2013-08-04 21:31:00,83.7,76.1,30.03,SW,232,0.0,2.0,78,0.00,,,0.20,meteohub,2013-08-05 01:31:00,
2013-08-04 21:36:00,83.7,76.1,30.03,SW,232,0.0,1.0,78,0.00,,,0.20,meteohub,2013-08-05 01:36:00,
2013-08-04 21:41:00,83.8,76.3,30.03,SW,232,0.0,2.0,78,0.00,,,0.20,meteohub,2013-08-05 01:41:00,
2013-08-04 21:46:00,83.7,76.1,30.03,SW,232,0.0,2.0,78,0.00,,,0.20,meteohub,2013-08-05 01:46:00,
2013-08-04 21:51:00,83.5,75.9,30.03,SW,232,0.0,1.0,78,0.00,,,0.20,meteohub,2013-08-05 01:51:00,
2013-08-04 21:56:00,83.5,75.9,30.04,SW,232,1.0,2.0,78,0.00,,,0.20,meteohub,2013-08-05 01:56:00,
2013-08-04 22:02:00,83.3,75.7,30.04,SW,232,1.0,2.0,78,0.00,,,0.20,meteohub,2013-08-05 02:02:00,
2013-08-04 22:07:00,83.1,75.6,30.04,SW,232,1.0,3.0,78,0.00,,,0.20,meteohub,2013-08-05 02:07:00,
2013-08-04 22:12:00,83.3,75.7,30.04,SW,232,0.0,3.0,78,0.00,,,0.20,meteohub,2013-08-05 02:12:00,
2013-08-04 22:18:00,83.3,75.7,30.04,SW,232,0.0,2.0,78,0.00,,,0.20,meteohub,2013-08-05 02:18:00,
2013-08-04 22:23:00,83.1,75.6,30.04,SW,232,0.0,2.0,78,0.00,,,0.20,meteohub,2013-08-05 02:23:00,
2013-08-04 22:28:00,83.1,75.9,30.04,SW,232,0.0,3.0,79,0.00,,,0.20,meteohub,2013-08-05 02:28:00,
2013-08-04 22:33:00,83.1,75.9,30.04,SW,232,0.0,3.0,79,0.00,,,0.20,meteohub,2013-08-05 02:33:00,
2013-08-04 22:39:00,83.1,75.9,30.04,SW,232,2.0,3.0,79,0.00,,,0.20,meteohub,2013-08-05 02:39:00,
2013-08-04 22:44:00,83.1,75.9,30.04,SW,232,3.0,3.0,79,0.00,,,0.20,meteohub,2013-08-05 02:44:00,
2013-08-04 22:49:00,83.1,75.9,30.04,SW,232,1.0,3.0,79,0.00,,,0.20,meteohub,2013-08-05 02:49:00,
2013-08-04 22:54:00,83.1,75.9,30.04,SW,232,1.0,3.0,79,0.00,,,0.20,meteohub,2013-08-05 02:54:00,
2013-08-04 22:59:00,83.3,76.1,30.04,SW,232,2.0,4.0,79,0.00,,,0.20,meteohub,2013-08-05 02:59:00,
2013-08-04 23:04:00,83.3,76.1,30.05,SW,232,0.0,4.0,79,0.00,,,0.20,meteohub,2013-08-05 03:04:00,
2013-08-04 23:10:00,83.1,75.9,30.05,SW,232,0.0,4.0,79,0.00,,,0.20,meteohub,2013-08-05 03:10:00,
2013-08-04 23:15:00,83.1,75.9,30.05,SW,232,0.0,3.0,79,0.00,,,0.20,meteohub,2013-08-05 03:15:00,
2013-08-04 23:20:00,83.5,76.3,30.05,SW,232,1.0,3.0,79,0.00,,,0.20,meteohub,2013-08-05 03:20:00,
2013-08-04 23:25:00,83.5,76.3,30.05,SW,232,3.0,3.0,79,0.00,,,0.20,meteohub,2013-08-05 03:25:00,
2013-08-04 23:30:00,83.5,76.3,30.04,SW,232,1.0,3.0,79,0.00,,,0.20,meteohub,2013-08-05 03:30:00,
2013-08-04 23:35:00,83.5,76.3,30.04,SW,232,0.0,4.0,79,0.00,,,0.20,meteohub,2013-08-05 03:35:00,
2013-08-04 23:40:00,83.1,75.9,30.04,SW,232,0.0,5.0,79,0.00,,,0.20,meteohub,2013-08-05 03:40:00,
2013-08-04 23:45:00,82.9,75.7,30.04,SW,232,1.0,5.0,79,0.00,,,0.20,meteohub,2013-08-05 03:45:00,
2013-08-04 23:50:00,82.9,76.1,30.04,SW,232,1.0,5.0,80,0.00,,,0.20,meteohub,2013-08-05 03:50:00,
2013-08-04 23:55:00,82.9,76.1,30.04,SW,232,0.0,3.0,80,0.00,,,0.20,meteohub,2013-08-05 03:55:00,